sensor_id;sensor_type;location;lat;lon;timestamp;temperature;humidity
17918;DHT22;9084;50.956;3.106;2023-07-20T00:00:41;16.60;99.90
17918;DHT22;9084;50.956;3.106;2023-07-20T00:03:15;16.50;99.90
17918;DHT22;9084;50.956;3.106;2023-07-20T00:05:45;16.50;99.90
17918;DHT22;9084;50.956;3.106;2023-07-20T00:08:11;16.40;99.90
17918;DHT22;9084;50.956;3.106;2023-07-20T00:10:36;16.40;99.90
17918;DHT22;9084;50.956;3.106;2023-07-20T00:13:02;16.40;99.90
17918;DHT22;9084;50.956;3.106;2023-07-20T00:15:30;16.30;99.90
17918;DHT22;9084;50.956;3.106;2023-07-20T00:17:58;16.30;99.90
17918;DHT22;9084;50.956;3.106;2023-07-20T00:20:28;16.30;99.90
17918;DHT22;9084;50.956;3.106;2023-07-20T00:22:54;16.20;99.90
17918;DHT22;9084;50.956;3.106;2023-07-20T00:25:20;16.20;99.90
17918;DHT22;9084;50.956;3.106;2023-07-20T00:27:46;16.20;99.90
17918;DHT22;9084;50.956;3.106;2023-07-20T00:30:12;16.20;99.90
17918;DHT22;9084;50.956;3.106;2023-07-20T00:32:38;16.10;99.90
17918;DHT22;9084;50.956;3.106;2023-07-20T00:35:04;16.10;99.90
17918;DHT22;9084;50.956;3.106;2023-07-20T00:37:29;16.10;99.90
17918;DHT22;9084;50.956;3.106;2023-07-20T00:39:55;16.10;99.90
17918;DHT22;9084;50.956;3.106;2023-07-20T00:42:21;16.10;99.90
17918;DHT22;9084;50.956;3.106;2023-07-20T00:44:51;16.10;99.90
17918;DHT22;9084;50.956;3.106;2023-07-20T00:47:21;16.10;99.90
17918;DHT22;9084;50.956;3.106;2023-07-20T00:49:50;16.10;99.90
17918;DHT22;9084;50.956;3.106;2023-07-20T00:52:20;16.10;99.90
17918;DHT22;9084;50.956;3.106;2023-07-20T00:54:47;16.10;99.90
17918;DHT22;9084;50.956;3.106;2023-07-20T00:57:15;16.10;99.90
17918;DHT22;9084;50.956;3.106;2023-07-20T00:59:41;16.00;99.90
17918;DHT22;9084;50.956;3.106;2023-07-20T01:02:07;16.00;99.90
17918;DHT22;9084;50.956;3.106;2023-07-20T01:04:33;16.00;99.90
17918;DHT22;9084;50.956;3.106;2023-07-20T01:12:17;15.90;99.90
17918;DHT22;9084;50.956;3.106;2023-07-20T01:14:47;15.80;99.90
17918;DHT22;9084;50.956;3.106;2023-07-20T01:17:12;15.70;99.90
17918;DHT22;9084;50.956;3.106;2023-07-20T01:19:39;15.70;99.90
17918;DHT22;9084;50.956;3.106;2023-07-20T01:25:11;15.70;99.90
17918;DHT22;9084;50.956;3.106;2023-07-20T01:32:47;15.70;99.90
17918;DHT22;9084;50.956;3.106;2023-07-20T01:35:14;15.80;99.90
17918;DHT22;9084;50.956;3.106;2023-07-20T01:37:46;15.80;99.90
17918;DHT22;9084;50.956;3.106;2023-07-20T01:40:13;15.90;99.90
17918;DHT22;9084;50.956;3.106;2023-07-20T01:42:48;15.90;99.90
17918;DHT22;9084;50.956;3.106;2023-07-20T01:45:14;16.00;99.90
17918;DHT22;9084;50.956;3.106;2023-07-20T01:47:40;16.00;99.90
17918;DHT22;9084;50.956;3.106;2023-07-20T01:50:06;16.00;99.90
17918;DHT22;9084;50.956;3.106;2023-07-20T01:52:35;16.00;99.90
17918;DHT22;9084;50.956;3.106;2023-07-20T01:55:03;16.00;99.90
17918;DHT22;9084;50.956;3.106;2023-07-20T01:57:30;16.00;99.90
17918;DHT22;9084;50.956;3.106;2023-07-20T01:59:55;16.00;99.90
17918;DHT22;9084;50.956;3.106;2023-07-20T02:02:22;16.10;99.90
17918;DHT22;9084;50.956;3.106;2023-07-20T02:04:48;16.10;99.90
17918;DHT22;9084;50.956;3.106;2023-07-20T02:07:13;16.10;99.90
17918;DHT22;9084;50.956;3.106;2023-07-20T02:09:39;16.20;99.90
17918;DHT22;9084;50.956;3.106;2023-07-20T02:12:07;16.20;99.90
17918;DHT22;9084;50.956;3.106;2023-07-20T02:14:35;16.20;99.90
17918;DHT22;9084;50.956;3.106;2023-07-20T02:17:04;16.30;99.90
17918;DHT22;9084;50.956;3.106;2023-07-20T02:19:32;16.30;99.90
17918;DHT22;9084;50.956;3.106;2023-07-20T02:21:58;16.30;99.90
17918;DHT22;9084;50.956;3.106;2023-07-20T02:24:24;16.30;99.90
17918;DHT22;9084;50.956;3.106;2023-07-20T02:26:50;16.30;99.90
17918;DHT22;9084;50.956;3.106;2023-07-20T02:29:16;16.40;99.90
17918;DHT22;9084;50.956;3.106;2023-07-20T02:31:41;16.40;99.90
17918;DHT22;9084;50.956;3.106;2023-07-20T02:34:09;16.30;99.90
17918;DHT22;9084;50.956;3.106;2023-07-20T02:36:35;16.40;99.90
17918;DHT22;9084;50.956;3.106;2023-07-20T02:39:06;16.40;99.90
17918;DHT22;9084;50.956;3.106;2023-07-20T02:41:35;16.40;99.90
17918;DHT22;9084;50.956;3.106;2023-07-20T02:44:03;16.40;99.90
17918;DHT22;9084;50.956;3.106;2023-07-20T02:46:31;16.40;99.90
17918;DHT22;9084;50.956;3.106;2023-07-20T02:48:56;16.40;99.90
17918;DHT22;9084;50.956;3.106;2023-07-20T02:51:24;16.40;99.90
17918;DHT22;9084;50.956;3.106;2023-07-20T02:53:52;16.40;99.90
17918;DHT22;9084;50.956;3.106;2023-07-20T02:56:20;16.40;99.90
17918;DHT22;9084;50.956;3.106;2023-07-20T02:58:46;16.40;99.90
17918;DHT22;9084;50.956;3.106;2023-07-20T03:01:14;16.40;99.90
17918;DHT22;9084;50.956;3.106;2023-07-20T03:03:42;16.40;99.90
17918;DHT22;9084;50.956;3.106;2023-07-20T03:06:15;16.40;99.90
17918;DHT22;9084;50.956;3.106;2023-07-20T03:08:44;16.50;99.90
17918;DHT22;9084;50.956;3.106;2023-07-20T03:11:17;16.40;99.90
17918;DHT22;9084;50.956;3.106;2023-07-20T03:13:46;16.40;99.90
17918;DHT22;9084;50.956;3.106;2023-07-20T03:16:13;16.50;99.90
17918;DHT22;9084;50.956;3.106;2023-07-20T03:18:42;16.50;99.90
17918;DHT22;9084;50.956;3.106;2023-07-20T03:21:10;16.40;99.90
17918;DHT22;9084;50.956;3.106;2023-07-20T03:23:37;16.40;99.90
17918;DHT22;9084;50.956;3.106;2023-07-20T03:26:08;16.40;99.90
17918;DHT22;9084;50.956;3.106;2023-07-20T03:28:37;16.40;99.90
17918;DHT22;9084;50.956;3.106;2023-07-20T03:31:03;16.40;99.90
17918;DHT22;9084;50.956;3.106;2023-07-20T03:33:30;16.40;99.90
17918;DHT22;9084;50.956;3.106;2023-07-20T03:35:59;16.40;99.90
17918;DHT22;9084;50.956;3.106;2023-07-20T03:38:25;16.40;99.90
17918;DHT22;9084;50.956;3.106;2023-07-20T03:40:55;16.40;99.90
17918;DHT22;9084;50.956;3.106;2023-07-20T03:43:24;16.40;99.90
17918;DHT22;9084;50.956;3.106;2023-07-20T03:45:51;16.40;99.90
17918;DHT22;9084;50.956;3.106;2023-07-20T03:48:19;16.50;99.90
17918;DHT22;9084;50.956;3.106;2023-07-20T03:50:48;16.50;99.90
17918;DHT22;9084;50.956;3.106;2023-07-20T03:53:17;16.40;99.90
17918;DHT22;9084;50.956;3.106;2023-07-20T03:55:46;16.50;99.90
17918;DHT22;9084;50.956;3.106;2023-07-20T03:58:15;16.40;99.90
17918;DHT22;9084;50.956;3.106;2023-07-20T04:00:50;16.50;99.90
17918;DHT22;9084;50.956;3.106;2023-07-20T04:03:17;16.50;99.90
17918;DHT22;9084;50.956;3.106;2023-07-20T04:05:46;16.50;99.90
17918;DHT22;9084;50.956;3.106;2023-07-20T04:08:14;16.40;99.90
17918;DHT22;9084;50.956;3.106;2023-07-20T04:10:43;16.50;99.90
17918;DHT22;9084;50.956;3.106;2023-07-20T04:13:09;16.40;99.90
17918;DHT22;9084;50.956;3.106;2023-07-20T04:15:34;16.40;99.90
17918;DHT22;9084;50.956;3.106;2023-07-20T04:18:00;16.40;99.90
17918;DHT22;9084;50.956;3.106;2023-07-20T04:20:26;16.50;99.90
17918;DHT22;9084;50.956;3.106;2023-07-20T04:22:52;16.40;99.90
17918;DHT22;9084;50.956;3.106;2023-07-20T04:25:18;16.50;99.90
17918;DHT22;9084;50.956;3.106;2023-07-20T04:27:46;16.50;99.90
17918;DHT22;9084;50.956;3.106;2023-07-20T04:30:16;16.50;99.90
17918;DHT22;9084;50.956;3.106;2023-07-20T04:32:45;16.50;99.90
17918;DHT22;9084;50.956;3.106;2023-07-20T04:35:17;16.60;99.90
17918;DHT22;9084;50.956;3.106;2023-07-20T04:37:48;16.60;99.90
17918;DHT22;9084;50.956;3.106;2023-07-20T04:40:15;16.60;99.90
17918;DHT22;9084;50.956;3.106;2023-07-20T04:42:43;16.60;99.90
17918;DHT22;9084;50.956;3.106;2023-07-20T04:45:11;16.60;99.90
17918;DHT22;9084;50.956;3.106;2023-07-20T04:47:37;16.50;99.90
17918;DHT22;9084;50.956;3.106;2023-07-20T04:50:03;16.50;99.90
17918;DHT22;9084;50.956;3.106;2023-07-20T04:52:29;16.50;99.90
17918;DHT22;9084;50.956;3.106;2023-07-20T04:54:57;16.50;99.90
17918;DHT22;9084;50.956;3.106;2023-07-20T04:57:23;16.50;99.90
17918;DHT22;9084;50.956;3.106;2023-07-20T04:59:49;16.50;99.90
17918;DHT22;9084;50.956;3.106;2023-07-20T05:02:15;16.60;99.90
17918;DHT22;9084;50.956;3.106;2023-07-20T05:04:40;16.60;99.90
17918;DHT22;9084;50.956;3.106;2023-07-20T05:07:08;16.70;99.90
17918;DHT22;9084;50.956;3.106;2023-07-20T05:09:34;16.80;99.90
17918;DHT22;9084;50.956;3.106;2023-07-20T05:12:02;16.80;99.90
17918;DHT22;9084;50.956;3.106;2023-07-20T05:14:27;16.90;99.90
17918;DHT22;9084;50.956;3.106;2023-07-20T05:16:53;17.00;99.90
17918;DHT22;9084;50.956;3.106;2023-07-20T05:19:19;17.00;99.90
17918;DHT22;9084;50.956;3.106;2023-07-20T05:21:47;17.10;99.90
17918;DHT22;9084;50.956;3.106;2023-07-20T05:24:17;17.10;99.90
17918;DHT22;9084;50.956;3.106;2023-07-20T05:26:45;17.10;99.90
17918;DHT22;9084;50.956;3.106;2023-07-20T05:29:11;17.10;99.90
17918;DHT22;9084;50.956;3.106;2023-07-20T05:31:38;17.10;99.90
17918;DHT22;9084;50.956;3.106;2023-07-20T05:34:08;17.20;99.90
17918;DHT22;9084;50.956;3.106;2023-07-20T05:36:34;17.20;99.90
17918;DHT22;9084;50.956;3.106;2023-07-20T05:39:02;17.30;99.90
17918;DHT22;9084;50.956;3.106;2023-07-20T05:41:28;17.30;99.90
17918;DHT22;9084;50.956;3.106;2023-07-20T05:43:55;17.40;99.90
17918;DHT22;9084;50.956;3.106;2023-07-20T05:46:23;17.50;99.90
17918;DHT22;9084;50.956;3.106;2023-07-20T05:48:51;17.50;99.90
17918;DHT22;9084;50.956;3.106;2023-07-20T05:51:21;17.50;99.90
17918;DHT22;9084;50.956;3.106;2023-07-20T05:53:46;17.50;99.90
17918;DHT22;9084;50.956;3.106;2023-07-20T05:56:14;17.60;99.90
17918;DHT22;9084;50.956;3.106;2023-07-20T05:58:42;17.50;99.90
17918;DHT22;9084;50.956;3.106;2023-07-20T06:01:08;17.50;99.90
17918;DHT22;9084;50.956;3.106;2023-07-20T06:03:33;17.50;99.90
17918;DHT22;9084;50.956;3.106;2023-07-20T06:06:03;17.50;99.90
17918;DHT22;9084;50.956;3.106;2023-07-20T06:08:30;17.60;99.90
17918;DHT22;9084;50.956;3.106;2023-07-20T06:10:58;17.60;99.90
17918;DHT22;9084;50.956;3.106;2023-07-20T06:13:23;17.60;99.90
17918;DHT22;9084;50.956;3.106;2023-07-20T06:15:51;17.70;99.90
17918;DHT22;9084;50.956;3.106;2023-07-20T06:18:20;17.70;99.90
17918;DHT22;9084;50.956;3.106;2023-07-20T06:20:53;17.80;99.90
17918;DHT22;9084;50.956;3.106;2023-07-20T06:23:20;17.90;99.90
17918;DHT22;9084;50.956;3.106;2023-07-20T06:25:46;17.90;99.90
17918;DHT22;9084;50.956;3.106;2023-07-20T06:28:15;18.00;99.90
17918;DHT22;9084;50.956;3.106;2023-07-20T06:30:45;18.00;99.90
17918;DHT22;9084;50.956;3.106;2023-07-20T06:33:13;18.00;99.90
17918;DHT22;9084;50.956;3.106;2023-07-20T06:35:43;18.10;99.90
17918;DHT22;9084;50.956;3.106;2023-07-20T06:38:09;18.10;99.90
17918;DHT22;9084;50.956;3.106;2023-07-20T06:40:35;18.20;99.90
17918;DHT22;9084;50.956;3.106;2023-07-20T06:43:00;18.20;99.90
17918;DHT22;9084;50.956;3.106;2023-07-20T06:45:28;18.30;99.90
17918;DHT22;9084;50.956;3.106;2023-07-20T06:47:57;18.50;99.90
17918;DHT22;9084;50.956;3.106;2023-07-20T06:50:25;18.60;99.90
17918;DHT22;9084;50.956;3.106;2023-07-20T06:52:53;18.70;99.90
17918;DHT22;9084;50.956;3.106;2023-07-20T06:55:19;18.90;99.90
17918;DHT22;9084;50.956;3.106;2023-07-20T06:57:47;18.90;99.90
17918;DHT22;9084;50.956;3.106;2023-07-20T07:00:13;19.00;99.90
17918;DHT22;9084;50.956;3.106;2023-07-20T07:02:41;19.00;99.90
17918;DHT22;9084;50.956;3.106;2023-07-20T07:05:09;19.10;99.90
17918;DHT22;9084;50.956;3.106;2023-07-20T07:07:34;19.10;99.90
17918;DHT22;9084;50.956;3.106;2023-07-20T07:10:01;19.20;99.90
17918;DHT22;9084;50.956;3.106;2023-07-20T07:12:29;19.20;99.90
17918;DHT22;9084;50.956;3.106;2023-07-20T07:15:00;19.20;99.90
17918;DHT22;9084;50.956;3.106;2023-07-20T07:17:25;19.20;99.90
17918;DHT22;9084;50.956;3.106;2023-07-20T07:19:54;19.20;99.90
17918;DHT22;9084;50.956;3.106;2023-07-20T07:22:21;19.20;99.90
17918;DHT22;9084;50.956;3.106;2023-07-20T07:24:47;19.20;99.90
17918;DHT22;9084;50.956;3.106;2023-07-20T07:27:13;19.20;99.90
17918;DHT22;9084;50.956;3.106;2023-07-20T07:29:42;19.20;99.90
17918;DHT22;9084;50.956;3.106;2023-07-20T07:32:10;19.30;99.90
17918;DHT22;9084;50.956;3.106;2023-07-20T07:34:38;19.50;99.90
17918;DHT22;9084;50.956;3.106;2023-07-20T07:37:07;19.70;99.90
17918;DHT22;9084;50.956;3.106;2023-07-20T07:39:35;20.00;99.90
17918;DHT22;9084;50.956;3.106;2023-07-20T07:42:03;20.30;99.90
17918;DHT22;9084;50.956;3.106;2023-07-20T07:44:33;20.50;99.90
17918;DHT22;9084;50.956;3.106;2023-07-20T07:46:59;20.70;99.90
17918;DHT22;9084;50.956;3.106;2023-07-20T07:49:24;20.80;99.90
17918;DHT22;9084;50.956;3.106;2023-07-20T07:51:52;21.00;99.90
17918;DHT22;9084;50.956;3.106;2023-07-20T07:54:20;20.90;99.90
17918;DHT22;9084;50.956;3.106;2023-07-20T07:56:46;20.80;99.90
17918;DHT22;9084;50.956;3.106;2023-07-20T07:59:14;20.90;99.90
17918;DHT22;9084;50.956;3.106;2023-07-20T08:01:42;20.80;99.90
17918;DHT22;9084;50.956;3.106;2023-07-20T08:04:07;20.80;99.90
17918;DHT22;9084;50.956;3.106;2023-07-20T08:06:35;20.90;99.90
17918;DHT22;9084;50.956;3.106;2023-07-20T08:09:01;20.90;99.90
17918;DHT22;9084;50.956;3.106;2023-07-20T08:11:27;20.70;99.90
17918;DHT22;9084;50.956;3.106;2023-07-20T08:13:56;20.60;99.90
17918;DHT22;9084;50.956;3.106;2023-07-20T08:16:22;20.50;99.90
17918;DHT22;9084;50.956;3.106;2023-07-20T08:18:50;20.50;99.90
17918;DHT22;9084;50.956;3.106;2023-07-20T08:21:18;20.50;99.90
17918;DHT22;9084;50.956;3.106;2023-07-20T08:23:44;20.50;99.90
17918;DHT22;9084;50.956;3.106;2023-07-20T08:26:10;20.60;99.90
17918;DHT22;9084;50.956;3.106;2023-07-20T08:28:40;20.90;99.90
17918;DHT22;9084;50.956;3.106;2023-07-20T08:31:07;21.20;99.90
17918;DHT22;9084;50.956;3.106;2023-07-20T08:33:33;21.50;99.90
17918;DHT22;9084;50.956;3.106;2023-07-20T08:36:01;21.70;97.80
17918;DHT22;9084;50.956;3.106;2023-07-20T08:38:29;21.90;96.50
17918;DHT22;9084;50.956;3.106;2023-07-20T08:40:55;22.00;96.00
17918;DHT22;9084;50.956;3.106;2023-07-20T08:43:23;22.10;96.30
17918;DHT22;9084;50.956;3.106;2023-07-20T08:45:53;22.20;96.50
17918;DHT22;9084;50.956;3.106;2023-07-20T08:48:23;22.20;96.10
17918;DHT22;9084;50.956;3.106;2023-07-20T08:50:52;22.20;95.70
17918;DHT22;9084;50.956;3.106;2023-07-20T08:53:25;22.20;95.70
17918;DHT22;9084;50.956;3.106;2023-07-20T08:55:51;22.20;95.60
17918;DHT22;9084;50.956;3.106;2023-07-20T08:58:20;22.30;94.60
17918;DHT22;9084;50.956;3.106;2023-07-20T09:00:48;22.40;94.30
17918;DHT22;9084;50.956;3.106;2023-07-20T09:03:16;22.50;93.60
17918;DHT22;9084;50.956;3.106;2023-07-20T09:05:41;22.50;92.90
17918;DHT22;9084;50.956;3.106;2023-07-20T09:08:07;22.60;93.50
17918;DHT22;9084;50.956;3.106;2023-07-20T09:10:33;22.60;92.90
17918;DHT22;9084;50.956;3.106;2023-07-20T09:12:58;22.60;92.80
17918;DHT22;9084;50.956;3.106;2023-07-20T09:15:29;22.70;93.30
17918;DHT22;9084;50.956;3.106;2023-07-20T09:17:54;22.60;92.60
17918;DHT22;9084;50.956;3.106;2023-07-20T09:20:23;22.70;93.00
17918;DHT22;9084;50.956;3.106;2023-07-20T09:22:50;22.60;92.70
17918;DHT22;9084;50.956;3.106;2023-07-20T09:25:17;22.60;92.70
17918;DHT22;9084;50.956;3.106;2023-07-20T09:27:46;22.70;92.50
17918;DHT22;9084;50.956;3.106;2023-07-20T09:30:12;22.80;92.10
17918;DHT22;9084;50.956;3.106;2023-07-20T09:32:49;23.00;91.00
17918;DHT22;9084;50.956;3.106;2023-07-20T09:35:20;23.10;91.00
17918;DHT22;9084;50.956;3.106;2023-07-20T09:37:47;23.10;90.80
17918;DHT22;9084;50.956;3.106;2023-07-20T09:40:17;23.10;90.70
17918;DHT22;9084;50.956;3.106;2023-07-20T09:42:46;23.10;91.00
17918;DHT22;9084;50.956;3.106;2023-07-20T09:45:14;23.20;91.00
17918;DHT22;9084;50.956;3.106;2023-07-20T09:47:40;23.30;91.00
17918;DHT22;9084;50.956;3.106;2023-07-20T09:50:09;23.30;90.30
17918;DHT22;9084;50.956;3.106;2023-07-20T09:52:38;23.10;90.10
17918;DHT22;9084;50.956;3.106;2023-07-20T09:55:06;23.10;90.40
17918;DHT22;9084;50.956;3.106;2023-07-20T09:57:38;23.10;90.70
17918;DHT22;9084;50.956;3.106;2023-07-20T10:00:05;22.90;90.70
17918;DHT22;9084;50.956;3.106;2023-07-20T10:02:45;22.80;90.50
17918;DHT22;9084;50.956;3.106;2023-07-20T10:05:14;22.60;90.20
17918;DHT22;9084;50.956;3.106;2023-07-20T10:07:50;22.30;90.80
17918;DHT22;9084;50.956;3.106;2023-07-20T10:10:18;22.10;91.70
17918;DHT22;9084;50.956;3.106;2023-07-20T10:12:48;22.00;92.20
17918;DHT22;9084;50.956;3.106;2023-07-20T10:15:30;21.80;92.70
17918;DHT22;9084;50.956;3.106;2023-07-20T10:18:04;21.70;94.40
17918;DHT22;9084;50.956;3.106;2023-07-20T10:20:35;21.50;96.20
17918;DHT22;9084;50.956;3.106;2023-07-20T10:23:03;21.30;98.30
17918;DHT22;9084;50.956;3.106;2023-07-20T10:25:32;21.20;99.90
17918;DHT22;9084;50.956;3.106;2023-07-20T10:27:59;20.90;99.90
17918;DHT22;9084;50.956;3.106;2023-07-20T10:30:28;20.80;99.90
17918;DHT22;9084;50.956;3.106;2023-07-20T10:32:56;20.80;99.90
17918;DHT22;9084;50.956;3.106;2023-07-20T10:35:22;20.70;99.90
17918;DHT22;9084;50.956;3.106;2023-07-20T10:42:50;20.80;99.90
17918;DHT22;9084;50.956;3.106;2023-07-20T10:45:18;20.90;99.90
17918;DHT22;9084;50.956;3.106;2023-07-20T10:47:47;21.00;99.90
17918;DHT22;9084;50.956;3.106;2023-07-20T10:50:13;21.10;99.90
17918;DHT22;9084;50.956;3.106;2023-07-20T10:52:40;21.30;99.90
17918;DHT22;9084;50.956;3.106;2023-07-20T10:55:16;21.50;99.90
17918;DHT22;9084;50.956;3.106;2023-07-20T10:57:42;21.60;99.90
17918;DHT22;9084;50.956;3.106;2023-07-20T11:00:10;21.70;99.90
17918;DHT22;9084;50.956;3.106;2023-07-20T11:02:47;21.80;99.90
17918;DHT22;9084;50.956;3.106;2023-07-20T11:08:04;22.00;99.90
17918;DHT22;9084;50.956;3.106;2023-07-20T11:10:29;22.20;97.60
17918;DHT22;9084;50.956;3.106;2023-07-20T11:13:17;22.30;96.60
17918;DHT22;9084;50.956;3.106;2023-07-20T11:18:28;22.80;94.30
17918;DHT22;9084;50.956;3.106;2023-07-20T11:20:54;23.10;92.00
17918;DHT22;9084;50.956;3.106;2023-07-20T11:23:22;23.40;88.00
17918;DHT22;9084;50.956;3.106;2023-07-20T11:25:49;23.70;89.30
17918;DHT22;9084;50.956;3.106;2023-07-20T11:28:15;23.90;89.10
17918;DHT22;9084;50.956;3.106;2023-07-20T11:30:43;24.20;85.70
17918;DHT22;9084;50.956;3.106;2023-07-20T11:33:11;24.30;85.20
17918;DHT22;9084;50.956;3.106;2023-07-20T11:35:46;24.70;82.70
17918;DHT22;9084;50.956;3.106;2023-07-20T11:38:13;24.90;78.70
17918;DHT22;9084;50.956;3.106;2023-07-20T11:40:46;24.90;76.50
17918;DHT22;9084;50.956;3.106;2023-07-20T11:43:17;24.90;77.70
17918;DHT22;9084;50.956;3.106;2023-07-20T11:45:44;24.80;78.90
17918;DHT22;9084;50.956;3.106;2023-07-20T11:48:17;24.60;79.40
17918;DHT22;9084;50.956;3.106;2023-07-20T11:50:42;24.50;79.50
17918;DHT22;9084;50.956;3.106;2023-07-20T11:53:08;24.30;80.00
17918;DHT22;9084;50.956;3.106;2023-07-20T11:55:38;24.10;80.30
17918;DHT22;9084;50.956;3.106;2023-07-20T11:58:06;24.00;79.90
17918;DHT22;9084;50.956;3.106;2023-07-20T12:00:33;23.80;79.40
17918;DHT22;9084;50.956;3.106;2023-07-20T12:03:04;23.80;79.80
17918;DHT22;9084;50.956;3.106;2023-07-20T12:05:32;23.80;79.80
17918;DHT22;9084;50.956;3.106;2023-07-20T12:08:00;23.70;79.50
17918;DHT22;9084;50.956;3.106;2023-07-20T12:10:28;23.80;79.80
17918;DHT22;9084;50.956;3.106;2023-07-20T12:12:54;23.80;80.40
17918;DHT22;9084;50.956;3.106;2023-07-20T12:17:52;23.70;81.50
17918;DHT22;9084;50.956;3.106;2023-07-20T12:23:04;23.30;82.30
17918;DHT22;9084;50.956;3.106;2023-07-20T12:25:50;23.10;83.60
17918;DHT22;9084;50.956;3.106;2023-07-20T12:28:19;22.70;84.90
17918;DHT22;9084;50.956;3.106;2023-07-20T12:30:47;22.50;87.60
17918;DHT22;9084;50.956;3.106;2023-07-20T12:33:21;22.30;87.00
17918;DHT22;9084;50.956;3.106;2023-07-20T12:35:50;22.10;90.00
17918;DHT22;9084;50.956;3.106;2023-07-20T12:38:18;21.80;99.10
17918;DHT22;9084;50.956;3.106;2023-07-20T12:40:44;20.90;99.90
17918;DHT22;9084;50.956;3.106;2023-07-20T12:43:10;19.90;99.90
17918;DHT22;9084;50.956;3.106;2023-07-20T12:45:35;19.20;99.90
17918;DHT22;9084;50.956;3.106;2023-07-20T12:48:01;18.60;99.90
17918;DHT22;9084;50.956;3.106;2023-07-20T12:50:27;18.20;99.90
17918;DHT22;9084;50.956;3.106;2023-07-20T12:52:52;18.00;99.90
17918;DHT22;9084;50.956;3.106;2023-07-20T12:55:18;17.80;99.90
17918;DHT22;9084;50.956;3.106;2023-07-20T12:57:46;17.90;99.90
17918;DHT22;9084;50.956;3.106;2023-07-20T13:00:17;17.90;99.90
17918;DHT22;9084;50.956;3.106;2023-07-20T13:02:43;18.00;99.90
17918;DHT22;9084;50.956;3.106;2023-07-20T13:05:09;18.00;99.90
17918;DHT22;9084;50.956;3.106;2023-07-20T13:07:38;18.10;99.90
17918;DHT22;9084;50.956;3.106;2023-07-20T13:10:05;18.00;99.90
17918;DHT22;9084;50.956;3.106;2023-07-20T13:12:34;18.00;99.90
17918;DHT22;9084;50.956;3.106;2023-07-20T13:15:04;17.90;99.90
17918;DHT22;9084;50.956;3.106;2023-07-20T13:17:36;17.80;99.90
17918;DHT22;9084;50.956;3.106;2023-07-20T13:20:06;17.60;99.90
17918;DHT22;9084;50.956;3.106;2023-07-20T13:22:36;17.50;99.90
17918;DHT22;9084;50.956;3.106;2023-07-20T13:25:02;17.50;99.90
17918;DHT22;9084;50.956;3.106;2023-07-20T13:27:28;17.60;99.90
17918;DHT22;9084;50.956;3.106;2023-07-20T13:29:55;17.50;99.90
17918;DHT22;9084;50.956;3.106;2023-07-20T13:32:26;17.50;99.90
17918;DHT22;9084;50.956;3.106;2023-07-20T13:34:51;17.60;99.90
17918;DHT22;9084;50.956;3.106;2023-07-20T13:37:17;17.80;99.90
17918;DHT22;9084;50.956;3.106;2023-07-20T13:39:45;17.80;99.90
17918;DHT22;9084;50.956;3.106;2023-07-20T13:42:11;17.90;99.90
17918;DHT22;9084;50.956;3.106;2023-07-20T13:44:38;18.10;99.90
17918;DHT22;9084;50.956;3.106;2023-07-20T13:47:04;18.30;99.90
17918;DHT22;9084;50.956;3.106;2023-07-20T13:49:32;18.50;99.90
17918;DHT22;9084;50.956;3.106;2023-07-20T13:52:00;18.50;99.90
17918;DHT22;9084;50.956;3.106;2023-07-20T13:54:31;18.50;99.90
17918;DHT22;9084;50.956;3.106;2023-07-20T13:56:59;18.60;99.90
17918;DHT22;9084;50.956;3.106;2023-07-20T13:59:28;18.60;99.90
17918;DHT22;9084;50.956;3.106;2023-07-20T14:01:53;18.70;99.90
17918;DHT22;9084;50.956;3.106;2023-07-20T14:04:21;18.80;99.90
17918;DHT22;9084;50.956;3.106;2023-07-20T14:06:47;19.00;99.90
17918;DHT22;9084;50.956;3.106;2023-07-20T14:09:13;19.20;99.90
17918;DHT22;9084;50.956;3.106;2023-07-20T14:11:38;19.50;99.90
17918;DHT22;9084;50.956;3.106;2023-07-20T14:14:04;19.60;99.90
17918;DHT22;9084;50.956;3.106;2023-07-20T14:16:30;19.80;99.90
17918;DHT22;9084;50.956;3.106;2023-07-20T14:19:00;19.80;99.90
17918;DHT22;9084;50.956;3.106;2023-07-20T14:21:25;19.80;99.90
17918;DHT22;9084;50.956;3.106;2023-07-20T14:23:52;19.80;99.90
17918;DHT22;9084;50.956;3.106;2023-07-20T14:26:23;20.00;99.90
17918;DHT22;9084;50.956;3.106;2023-07-20T14:28:49;20.10;99.90
17918;DHT22;9084;50.956;3.106;2023-07-20T14:31:14;20.30;99.90
17918;DHT22;9084;50.956;3.106;2023-07-20T14:33:45;20.30;99.90
17918;DHT22;9084;50.956;3.106;2023-07-20T14:36:13;20.30;99.90
17918;DHT22;9084;50.956;3.106;2023-07-20T14:38:39;20.40;99.90
17918;DHT22;9084;50.956;3.106;2023-07-20T14:41:08;20.50;99.90
17918;DHT22;9084;50.956;3.106;2023-07-20T14:43:33;20.40;99.90
17918;DHT22;9084;50.956;3.106;2023-07-20T14:46:04;20.40;99.90
17918;DHT22;9084;50.956;3.106;2023-07-20T14:48:30;20.30;99.90
17918;DHT22;9084;50.956;3.106;2023-07-20T14:50:55;20.30;99.90
17918;DHT22;9084;50.956;3.106;2023-07-20T14:53:24;20.20;99.90
17918;DHT22;9084;50.956;3.106;2023-07-20T14:55:58;20.30;99.90
17918;DHT22;9084;50.956;3.106;2023-07-20T14:58:26;20.30;99.90
17918;DHT22;9084;50.956;3.106;2023-07-20T15:00:55;20.30;99.90
17918;DHT22;9084;50.956;3.106;2023-07-20T15:03:21;20.40;99.90
17918;DHT22;9084;50.956;3.106;2023-07-20T15:05:49;20.30;99.90
17918;DHT22;9084;50.956;3.106;2023-07-20T15:08:18;20.40;99.90
17918;DHT22;9084;50.956;3.106;2023-07-20T15:10:45;20.40;99.90
17918;DHT22;9084;50.956;3.106;2023-07-20T15:13:15;20.60;99.90
17918;DHT22;9084;50.956;3.106;2023-07-20T15:15:41;20.70;99.90
17918;DHT22;9084;50.956;3.106;2023-07-20T15:18:08;20.50;99.90
17918;DHT22;9084;50.956;3.106;2023-07-20T15:20:36;20.60;99.90
17918;DHT22;9084;50.956;3.106;2023-07-20T15:23:01;20.70;99.90
17918;DHT22;9084;50.956;3.106;2023-07-20T15:25:27;20.80;99.90
17918;DHT22;9084;50.956;3.106;2023-07-20T15:27:56;20.80;99.90
17918;DHT22;9084;50.956;3.106;2023-07-20T15:30:24;20.80;99.90
17918;DHT22;9084;50.956;3.106;2023-07-20T15:32:50;20.70;99.90
17918;DHT22;9084;50.956;3.106;2023-07-20T15:35:15;20.70;99.90
17918;DHT22;9084;50.956;3.106;2023-07-20T15:37:43;20.70;99.90
17918;DHT22;9084;50.956;3.106;2023-07-20T15:40:10;20.60;99.90
17918;DHT22;9084;50.956;3.106;2023-07-20T15:42:38;20.50;99.90
17918;DHT22;9084;50.956;3.106;2023-07-20T15:45:06;20.30;99.90
17918;DHT22;9084;50.956;3.106;2023-07-20T15:47:34;20.40;99.90
17918;DHT22;9084;50.956;3.106;2023-07-20T15:50:00;20.20;99.90
17918;DHT22;9084;50.956;3.106;2023-07-20T15:52:27;19.90;99.90
17918;DHT22;9084;50.956;3.106;2023-07-20T15:54:53;19.70;6.50
17918;DHT22;9084;50.956;3.106;2023-07-20T15:57:18;19.60;62.90
17918;DHT22;9084;50.956;3.106;2023-07-20T15:59:47;19.60;75.00
17918;DHT22;9084;50.956;3.106;2023-07-20T16:02:14;19.60;13.10
17918;DHT22;9084;50.956;3.106;2023-07-20T16:04:42;19.50;1.00
17918;DHT22;9084;50.956;3.106;2023-07-20T16:07:10;19.40;1.00
17918;DHT22;9084;50.956;3.106;2023-07-20T16:09:36;19.40;30.30
17918;DHT22;9084;50.956;3.106;2023-07-20T16:12:05;19.40;47.50
17918;DHT22;9084;50.956;3.106;2023-07-20T16:14:33;19.60;64.40
17918;DHT22;9084;50.956;3.106;2023-07-20T16:16:59;19.80;69.40
17918;DHT22;9084;50.956;3.106;2023-07-20T16:19:25;20.20;16.30